Time;durP1;ratioP1;P1;durP2;ratioP2;P2;SDS_P1;SDS_P2;PMS_P1;PMS_P2;Temp;Humidity;BMP_temperature;BMP_pressure;BME280_temperature;BME280_humidity;BME280_pressure;Samples;Min_cycle;Max_cycle;Signal;HPM_P1;HPM_P2
2022/03/01 00:01:20;;;;;;;22.02;11.00;;;;;;;0.47;57.06;97670.06;5046077;28;20480;-63
2022/03/01 00:03:45;;;;;;;28.33;11.57;;;;;;;0.49;56.59;97667.09;5054337;28;20123;-61
2022/03/01 00:06:11;;;;;;;22.02;10.35;;;;;;;0.44;57.07;97673.31;5056503;28;20049;-64
2022/03/01 00:08:36;;;;;;;19.58;10.80;;;;;;;0.35;57.34;97672.28;5062140;28;20056;-64
2022/03/01 00:11:02;;;;;;;21.25;10.93;;;;;;;0.34;57.90;97671.47;5060213;28;20417;-65
2022/03/01 00:13:27;;;;;;;20.58;10.77;;;;;;;0.33;57.37;97671.75;5054622;28;20044;-64
2022/03/01 00:15:52;;;;;;;19.95;11.00;;;;;;;0.36;57.44;97669.31;5054567;28;20485;-65
2022/03/01 00:18:18;;;;;;;20.10;11.07;;;;;;;0.35;57.74;97673.06;5051894;28;20072;-63
2022/03/01 00:20:43;;;;;;;17.55;10.18;;;;;;;0.34;57.55;97674.16;5058244;28;20131;-63
2022/03/01 00:23:08;;;;;;;16.25;9.30;;;;;;;0.32;57.28;97672.81;5036587;28;20045;-64
2022/03/01 00:25:34;;;;;;;20.77;10.48;;;;;;;0.21;58.10;97669.34;5055947;28;20078;-65
2022/03/01 00:27:59;;;;;;;22.65;10.48;;;;;;;0.28;57.47;97677.16;5041390;28;20211;-66
2022/03/01 00:30:25;;;;;;;22.90;10.27;;;;;;;0.13;57.98;97667.25;5043983;28;20051;-65
2022/03/01 00:32:50;;;;;;;21.48;10.45;;;;;;;0.11;58.74;97664.00;5053312;28;20044;-65
2022/03/01 00:35:17;;;;;;;21.38;10.85;;;;;;;0.10;58.31;97665.91;5055870;28;20043;-63
2022/03/01 00:37:42;;;;;;;19.48;10.88;;;;;;;0.03;58.60;97667.28;5060667;28;20047;-63
2022/03/01 00:40:08;;;;;;;22.30;10.77;;;;;;;-0.10;59.65;97664.06;5055369;28;20397;-63
2022/03/01 00:42:34;;;;;;;22.35;10.60;;;;;;;-0.15;59.50;97657.91;5061740;28;20036;-63
2022/03/01 00:44:59;;;;;;;23.77;11.40;;;;;;;-0.27;60.01;97661.72;5054846;28;20039;-64
2022/03/01 00:47:24;;;;;;;19.98;11.10;;;;;;;-0.35;60.48;97666.81;5048861;28;20054;-63
2022/03/01 00:49:50;;;;;;;21.77;11.48;;;;;;;-0.41;60.48;97669.53;5060116;28;20550;-63
2022/03/01 00:52:15;;;;;;;19.55;10.88;;;;;;;-0.48;60.88;97668.19;5055434;28;20456;-64
2022/03/01 00:54:41;;;;;;;18.58;9.95;;;;;;;-0.53;60.24;97666.31;5061460;28;20087;-64
2022/03/01 00:57:06;;;;;;;25.55;10.68;;;;;;;-0.54;61.00;97655.81;5054828;28;20045;-62
2022/03/01 00:59:32;;;;;;;19.65;10.30;;;;;;;-0.65;61.46;97663.09;5054661;28;20080;-64
2022/03/01 01:01:57;;;;;;;20.75;11.05;;;;;;;-0.74;62.30;97665.50;5052138;28;20040;-63
2022/03/01 01:04:22;;;;;;;21.95;10.43;;;;;;;-0.81;62.09;97659.59;5071312;28;20045;-64
2022/03/01 01:06:48;;;;;;;18.25;9.65;;;;;;;-0.80;61.93;97661.22;5061231;28;20083;-63
2022/03/01 01:09:14;;;;;;;23.15;11.70;;;;;;;-0.80;61.96;97655.84;5058171;28;20187;-66
2022/03/01 01:11:40;;;;;;;22.10;10.73;;;;;;;-0.83;62.25;97676.03;5061108;28;20174;-63
2022/03/01 01:14:06;;;;;;;21.10;10.55;;;;;;;-0.89;62.51;97673.59;5048063;28;20044;-62
2022/03/01 01:16:31;;;;;;;20.33;10.88;;;;;;;-0.87;62.13;97664.16;5048881;28;20390;-64
2022/03/01 01:18:57;;;;;;;23.05;11.60;;;;;;;-0.88;62.16;97667.94;5040857;28;20106;-62
2022/03/01 01:21:22;;;;;;;20.83;10.80;;;;;;;-0.96;62.43;97677.34;5036373;28;20044;-63
2022/03/01 01:23:48;;;;;;;20.55;11.13;;;;;;;-1.02;62.79;97664.16;5040360;28;20044;-64
2022/03/01 01:26:13;;;;;;;22.95;12.05;;;;;;;-0.91;62.03;97671.16;5036375;28;20048;-64
2022/03/01 01:28:39;;;;;;;21.83;11.43;;;;;;;-0.77;61.43;97672.25;5041723;28;20041;-64
2022/03/01 01:31:04;;;;;;;24.58;11.52;;;;;;;-0.92;62.15;97664.16;5043343;28;20140;-63
2022/03/01 01:33:30;;;;;;;20.20;10.35;;;;;;;-1.04;62.08;97669.81;5058458;28;20435;-64
2022/03/01 01:35:55;;;;;;;21.95;10.63;;;;;;;-1.13;63.34;97668.72;5046549;28;20046;-64
2022/03/01 01:38:21;;;;;;;20.08;11.57;;;;;;;-1.14;63.01;97672.47;5039633;28;20036;-65
2022/03/01 01:40:46;;;;;;;18.10;9.82;;;;;;;-1.20;63.15;97663.59;5033870;28;20589;-64
2022/03/01 01:43:12;;;;;;;19.95;10.98;;;;;;;-1.16;63.34;97661.19;5039463;28;20044;-65
2022/03/01 01:45:37;;;;;;;23.40;10.77;;;;;;;-1.16;63.45;97671.94;5043097;28;20366;-65
2022/03/01 01:48:03;;;;;;;22.58;11.73;;;;;;;-1.18;63.57;97672.19;5024834;28;20128;-65
2022/03/01 01:50:32;;;;;;;18.70;10.50;;;;;;;-1.28;64.11;97671.38;5030001;28;20041;-64
2022/03/01 01:52:57;;;;;;;19.80;11.05;;;;;;;-1.22;63.88;97673.81;5042800;28;20033;-62
2022/03/01 01:55:26;;;;;;;24.35;11.90;;;;;;;-1.28;64.14;97666.81;5018162;28;20060;-65
2022/03/01 01:57:51;;;;;;;18.98;11.35;;;;;;;-1.38;64.71;97667.59;5023638;28;20084;-63
2022/03/01 02:00:17;;;;;;;21.20;11.02;;;;;;;-1.35;64.49;97669.75;5019342;28;20385;-65
2022/03/01 02:02:43;;;;;;;21.20;10.70;;;;;;;-1.34;64.69;97657.13;5024029;28;20046;-64
2022/03/01 02:05:10;;;;;;;22.90;12.27;;;;;;;-1.44;65.18;97662.47;5020728;28;20053;-60
2022/03/01 02:07:36;;;;;;;24.08;11.07;;;;;;;-1.46;64.98;97654.69;5045349;28;20041;-65
2022/03/01 02:10:03;;;;;;;22.60;10.63;;;;;;;-1.46;65.38;97651.19;5044784;28;20040;-64
2022/03/01 02:12:29;;;;;;;23.65;11.95;;;;;;;-1.47;65.07;97649.59;5042831;28;20041;-62
2022/03/01 02:14:54;;;;;;;21.70;10.27;;;;;;;-1.51;65.41;97651.16;5044235;28;20037;-64
2022/03/01 02:17:20;;;;;;;24.52;11.48;;;;;;;-1.45;65.10;97653.59;5040262;28;20620;-60
2022/03/01 02:19:49;;;;;;;23.20;11.82;;;;;;;-1.59;65.78;97647.13;5044603;28;20056;-62
2022/03/01 02:22:15;;;;;;;24.48;11.43;;;;;;;-1.61;65.88;97646.59;5040365;28;20412;-64
2022/03/01 02:24:40;;;;;;;19.30;10.85;;;;;;;-1.66;66.36;97647.34;5043375;28;20098;-61
2022/03/01 02:27:06;;;;;;;25.38;12.45;;;;;;;-1.66;66.49;97651.94;5038299;28;20088;-64
2022/03/01 02:29:32;;;;;;;23.80;11.90;;;;;;;-1.63;66.17;97630.72;5045213;28;20071;-63
2022/03/01 02:32:04;;;;;;;22.58;11.45;;;;;;;-1.73;66.80;97634.19;5052594;28;20037;-63
2022/03/01 02:34:30;;;;;;;30.50;11.50;;;;;;;-1.76;66.90;97626.66;5050735;28;20044;-63
2022/03/01 02:36:56;;;;;;;21.98;11.43;;;;;;;-1.73;66.51;97628.84;5052968;28;20482;-63
2022/03/01 02:39:22;;;;;;;24.50;11.82;;;;;;;-1.72;66.15;97618.88;5049336;28;20218;-63
2022/03/01 02:41:47;;;;;;;22.95;11.43;;;;;;;-1.68;65.96;97619.16;5051688;28;20044;-63
2022/03/01 02:44:13;;;;;;;24.63;11.82;;;;;;;-1.76;66.19;97615.91;5048442;28;20067;-65
2022/03/01 02:46:40;;;;;;;21.42;11.15;;;;;;;-1.71;66.09;97614.31;5052971;28;20060;-66
2022/03/01 02:49:07;;;;;;;16.98;10.93;;;;;;;-1.63;65.48;97619.19;5047162;28;20045;-65
2022/03/01 02:51:34;;;;;;;24.48;11.48;;;;;;;-1.75;65.98;97612.19;5056208;28;20095;-64
2022/03/01 02:53:59;;;;;;;20.75;11.50;;;;;;;-1.80;66.44;97620.22;5057465;28;20037;-65
2022/03/01 02:56:25;;;;;;;20.00;10.18;;;;;;;-1.87;66.99;97621.50;5047940;28;20048;-65
2022/03/01 02:58:51;;;;;;;28.08;12.00;;;;;;;-1.92;67.30;97614.25;5054704;28;20045;-64
2022/03/01 03:01:17;;;;;;;22.88;11.13;;;;;;;-1.87;66.89;97614.28;5049540;28;20036;-64
2022/03/01 03:03:43;;;;;;;21.42;11.30;;;;;;;-1.96;67.36;97627.41;5054163;28;20044;-64
2022/03/01 03:06:09;;;;;;;18.17;10.07;;;;;;;-2.05;68.23;97617.41;5048619;28;20052;-66
2022/03/01 03:08:34;;;;;;;24.08;10.95;;;;;;;-2.06;68.05;97615.81;5050357;28;20486;-63
2022/03/01 03:11:00;;;;;;;21.98;11.18;;;;;;;-2.13;68.11;97616.03;5051664;28;20409;-63
2022/03/01 03:13:25;;;;;;;22.92;11.75;;;;;;;-2.19;68.48;97620.59;5054437;28;20036;-62
2022/03/01 03:15:51;;;;;;;21.88;11.07;;;;;;;-2.23;68.67;97627.56;5063778;28;20378;-64
2022/03/01 03:18:17;;;;;;;21.83;10.60;;;;;;;-2.26;68.39;97628.06;5054515;28;20055;-67
2022/03/01 03:20:43;;;;;;;19.80;10.95;;;;;;;-2.23;68.70;97619.50;5054954;28;20041;-64
2022/03/01 03:23:08;;;;;;;22.30;10.55;;;;;;;-2.22;68.42;97626.47;5057940;28;20105;-65
2022/03/01 03:25:34;;;;;;;22.92;11.27;;;;;;;-2.24;68.57;97633.19;5053607;28;20070;-63
2022/03/01 03:28:00;;;;;;;18.48;10.27;;;;;;;-2.23;68.74;97624.88;5054098;28;20121;-64
2022/03/01 03:30:25;;;;;;;24.75;11.50;;;;;;;-2.21;67.76;97636.16;5050912;28;20075;-64
2022/03/01 03:32:51;;;;;;;23.55;10.13;;;;;;;-2.31;68.23;97639.56;5042339;28;20037;-63
2022/03/01 03:35:16;;;;;;;22.85;11.15;;;;;;;-2.32;68.17;97634.50;5037366;28;20537;-65
2022/03/01 03:37:41;;;;;;;22.05;10.15;;;;;;;-2.34;68.98;97645.47;5041382;28;20037;-64
2022/03/01 03:40:08;;;;;;;24.80;10.05;;;;;;;-2.44;68.86;97641.94;5069734;28;20400;-63
2022/03/01 03:42:33;;;;;;;23.90;10.73;;;;;;;-2.53;69.69;97642.41;5058403;28;20043;-62
2022/03/01 03:44:59;;;;;;;21.55;9.98;;;;;;;-2.60;70.31;97639.13;5057036;28;20037;-63
2022/03/01 03:47:24;;;;;;;26.75;11.07;;;;;;;-2.67;69.97;97646.59;5036499;28;20070;-65
2022/03/01 03:49:50;;;;;;;25.20;11.23;;;;;;;-2.70;69.92;97642.56;5042365;28;20037;-63
2022/03/01 03:52:15;;;;;;;24.48;12.70;;;;;;;-2.53;69.23;97647.75;5040868;28;20420;-66
2022/03/01 03:54:41;;;;;;;22.25;10.95;;;;;;;-2.47;69.24;97655.84;5053840;28;20040;-63
2022/03/01 03:57:08;;;;;;;21.90;10.68;;;;;;;-2.59;69.75;97647.97;5057022;28;20509;-64
2022/03/01 03:59:35;;;;;;;18.67;10.43;;;;;;;-2.59;69.47;97656.03;5062690;28;20041;-61
2022/03/01 04:02:04;;;;;;;24.83;11.05;;;;;;;-2.66;69.96;97652.78;5056497;28;20686;-62
2022/03/01 04:04:29;;;;;;;25.27;11.43;;;;;;;-2.70;69.86;97647.94;5051259;28;20123;-63
2022/03/01 04:06:55;;;;;;;21.58;10.20;;;;;;;-2.62;69.87;97656.56;5053273;28;20104;-64
2022/03/01 04:09:20;;;;;;;18.67;10.48;;;;;;;-2.64;69.72;97656.00;5046497;28;20535;-64
2022/03/01 04:11:46;;;;;;;19.73;9.82;;;;;;;-2.65;70.28;97663.22;5047560;28;20182;-64
2022/03/01 04:14:11;;;;;;;22.25;10.55;;;;;;;-2.66;70.19;97660.84;5047652;28;20107;-63
2022/03/01 04:16:38;;;;;;;24.00;10.02;;;;;;;-2.71;70.42;97662.38;5058270;28;20074;-63
2022/03/01 04:19:04;;;;;;;24.77;10.77;;;;;;;-2.70;70.36;97666.69;5055023;28;20040;-65
2022/03/01 04:21:29;;;;;;;29.48;10.80;;;;;;;-2.78;71.00;97675.22;5053371;28;20036;-63
2022/03/01 04:23:55;;;;;;;23.60;10.15;;;;;;;-2.85;71.53;97676.50;5062171;28;20058;-65
2022/03/01 04:26:20;;;;;;;25.60;10.82;;;;;;;-2.92;72.53;97665.97;5045424;28;20508;-65
2022/03/01 04:28:46;;;;;;;25.85;10.65;;;;;;;-3.06;72.21;97673.66;5049738;28;20044;-64
2022/03/01 04:31:11;;;;;;;19.25;10.68;;;;;;;-3.16;72.24;97663.63;5036799;28;20055;-65
2022/03/01 04:33:37;;;;;;;20.95;11.43;;;;;;;-3.14;72.66;97655.34;5049545;28;20382;-64
2022/03/01 04:36:03;;;;;;;26.48;11.93;;;;;;;-3.22;73.14;97650.44;5050698;28;20068;-66
2022/03/01 04:38:30;;;;;;;20.67;9.90;;;;;;;-3.21;73.71;97658.22;5042388;28;20044;-66
2022/03/01 04:40:56;;;;;;;28.00;10.38;;;;;;;-3.15;73.21;97651.88;5061624;28;20132;-63
2022/03/01 04:43:22;;;;;;;25.08;11.27;;;;;;;-3.03;72.96;97642.84;5049038;28;20059;-65
2022/03/01 04:45:48;;;;;;;23.50;10.85;;;;;;;-3.06;72.57;97652.22;5050751;28;20040;-66
2022/03/01 04:48:13;;;;;;;19.58;10.73;;;;;;;-3.12;73.07;97647.84;5044318;28;20083;-66
2022/03/01 04:50:39;;;;;;;26.15;12.13;;;;;;;-3.19;73.30;97645.38;5061818;28;20060;-65
2022/03/01 04:53:05;;;;;;;24.95;10.65;;;;;;;-3.20;73.62;97645.66;5058112;28;20064;-67
2022/03/01 04:55:30;;;;;;;34.45;11.45;;;;;;;-3.34;73.87;97646.06;5057265;28;20123;-63
2022/03/01 04:57:55;;;;;;;33.38;12.15;;;;;;;-3.54;73.91;97648.53;5042526;28;20059;-65
2022/03/01 05:00:22;;;;;;;28.02;10.93;;;;;;;-3.68;75.03;97646.22;5045701;28;20360;-64
2022/03/01 05:02:48;;;;;;;23.35;11.23;;;;;;;-3.78;76.91;97640.78;5049450;28;20152;-64
2022/03/01 05:05:19;;;;;;;22.92;10.82;;;;;;;-3.77;78.29;97642.38;5055726;28;20051;-64
2022/03/01 05:07:47;;;;;;;24.08;11.57;;;;;;;-3.78;78.66;97638.13;5060187;28;20048;-64
2022/03/01 05:10:17;;;;;;;24.25;11.25;;;;;;;-3.80;78.19;97637.53;5060004;28;20055;-65
2022/03/01 05:12:52;;;;;;;24.65;11.32;;;;;;;-3.77;79.12;97636.25;5064400;28;20044;-63
2022/03/01 05:15:19;;;;;;;21.48;10.00;;;;;;;-4.25;81.51;97646.63;5057646;28;20040;-64
2022/03/01 05:17:45;;;;;;;22.17;10.23;;;;;;;-4.30;81.83;97646.59;5081582;28;20048;-65
2022/03/01 05:20:12;;;;;;;17.83;10.77;;;;;;;-4.42;81.59;97652.03;5054194;28;20047;-64
2022/03/01 05:22:38;;;;;;;36.00;12.18;;;;;;;-4.48;82.68;97653.03;5065694;28;20040;-65
2022/03/01 05:25:06;;;;;;;25.35;10.85;;;;;;;-4.42;83.15;97652.81;5054213;28;20496;-64
2022/03/01 05:27:31;;;;;;;25.83;10.70;;;;;;;-4.25;83.41;97657.31;5055135;28;20052;-63
2022/03/01 05:29:57;;;;;;;24.02;11.25;;;;;;;-4.34;81.96;97648.94;5067523;28;20503;-63
2022/03/01 05:32:22;;;;;;;23.63;10.32;;;;;;;-4.35;82.05;97662.56;5060387;28;21014;-62
2022/03/01 05:34:48;;;;;;;24.88;10.00;;;;;;;-4.52;82.32;97665.25;5057691;28;20123;-62
2022/03/01 05:37:13;;;;;;;23.40;10.48;;;;;;;-4.66;83.07;97662.13;5053909;28;20048;-64
2022/03/01 05:39:38;;;;;;;22.83;10.75;;;;;;;-4.78;83.63;97656.84;5058996;28;20554;-62
2022/03/01 05:42:04;;;;;;;25.25;11.18;;;;;;;-4.84;84.67;97660.50;5063704;28;20052;-64
2022/03/01 05:44:29;;;;;;;24.27;11.98;;;;;;;-4.91;84.48;97654.53;5066761;28;20074;-63
2022/03/01 05:46:55;;;;;;;27.40;12.60;;;;;;;-4.82;85.91;97650.38;5065703;28;20052;-62
2022/03/01 05:49:21;;;;;;;29.48;12.85;;;;;;;-4.52;86.31;97652.69;5050743;28;20049;-63
2022/03/01 05:51:47;;;;;;;25.60;11.02;;;;;;;-4.42;84.09;97652.03;5054994;28;20135;-63
2022/03/01 05:54:12;;;;;;;24.45;11.18;;;;;;;-4.37;85.00;97649.44;5056451;28;20135;-63
2022/03/01 05:56:37;;;;;;;24.00;11.80;;;;;;;-4.57;84.42;97641.94;5067270;28;20060;-62
2022/03/01 05:59:04;;;;;;;25.52;11.68;;;;;;;-4.69;85.30;97650.03;5052720;28;20045;-65
2022/03/01 06:01:30;;;;;;;26.33;12.00;;;;;;;-4.78;85.18;97651.50;5059610;28;20139;-62
2022/03/01 06:03:55;;;;;;;24.88;12.07;;;;;;;-4.85;84.82;97659.69;5047201;28;20529;-63
2022/03/01 06:06:21;;;;;;;27.33;12.95;;;;;;;-5.00;84.90;97657.59;5047155;28;20058;-63
2022/03/01 06:08:46;;;;;;;28.58;11.55;;;;;;;-5.06;85.65;97655.91;5046404;28;20059;-63
2022/03/01 06:11:12;;;;;;;27.55;12.13;;;;;;;-4.98;88.08;97659.22;5041990;28;20075;-63
2022/03/01 06:13:37;;;;;;;23.40;10.57;;;;;;;-4.99;87.00;97661.06;5048485;28;20061;-63
2022/03/01 06:16:04;;;;;;;25.92;12.18;;;;;;;-4.85;88.13;97665.03;5042160;28;20508;-63
2022/03/01 06:18:30;;;;;;;27.88;11.40;;;;;;;-4.91;86.26;97666.00;5053497;28;20044;-63
2022/03/01 06:20:56;;;;;;;25.35;12.32;;;;;;;-4.85;85.99;97661.56;5048029;28;20371;-62
2022/03/01 06:23:22;;;;;;;23.50;11.15;;;;;;;-4.90;84.97;97664.94;5039194;28;20427;-63
2022/03/01 06:25:48;;;;;;;26.48;12.00;;;;;;;-4.92;87.20;97664.38;5055084;28;20052;-64
2022/03/01 06:28:13;;;;;;;27.80;12.77;;;;;;;-4.95;87.27;97664.06;5050598;28;20039;-64
2022/03/01 06:30:39;;;;;;;30.60;14.18;;;;;;;-4.89;88.85;97665.78;5061568;28;20125;-64
2022/03/01 06:33:04;;;;;;;22.35;11.80;;;;;;;-4.88;89.12;97662.88;5048477;28;20468;-64
2022/03/01 06:35:30;;;;;;;26.70;13.05;;;;;;;-4.79;88.71;97671.25;5045906;28;20076;-62
2022/03/01 06:37:56;;;;;;;25.70;12.10;;;;;;;-4.58;88.59;97674.25;5071320;28;20043;-63
2022/03/01 06:40:22;;;;;;;26.35;11.85;;;;;;;-4.37;88.49;97681.53;5053908;28;20568;-64
2022/03/01 06:42:48;;;;;;;25.77;12.45;;;;;;;-4.18;86.79;97678.56;5061281;28;20052;-64
2022/03/01 06:45:14;;;;;;;29.45;13.95;;;;;;;-3.95;85.04;97674.84;5048156;28;20071;-63
2022/03/01 06:47:39;;;;;;;23.17;12.35;;;;;;;-3.93;83.99;97673.53;5065152;28;20044;-64
2022/03/01 06:50:06;;;;;;;25.38;12.82;;;;;;;-3.74;83.74;97675.91;5065608;28;20044;-64
2022/03/01 06:52:34;;;;;;;25.80;12.85;;;;;;;-3.45;83.07;97687.19;5068494;28;20655;-64
2022/03/01 06:55:04;;;;;;;25.98;12.52;;;;;;;-2.65;78.43;97682.00;5073019;28;20041;-64
2022/03/01 06:57:30;;;;;;;31.88;14.00;;;;;;;-2.44;76.48;97680.28;5066843;28;20128;-64
2022/03/01 06:59:56;;;;;;;23.75;12.05;;;;;;;-2.00;74.37;97687.25;5057418;28;20071;-64
2022/03/01 07:02:22;;;;;;;24.48;11.75;;;;;;;-0.66;68.08;97686.50;5053529;28;20060;-65
2022/03/01 07:04:47;;;;;;;27.90;12.50;;;;;;;0.12;65.86;97692.56;5076416;28;20124;-65
2022/03/01 07:07:13;;;;;;;29.75;11.18;;;;;;;1.60;59.43;97696.25;5054286;28;20077;-65
2022/03/01 07:09:38;;;;;;;22.75;10.00;;;;;;;2.70;55.23;97698.31;5058779;28;20108;-65
2022/03/01 07:12:04;;;;;;;21.35;10.35;;;;;;;3.34;52.66;97700.66;5053116;28;20043;-65
2022/03/01 07:14:29;;;;;;;20.52;10.55;;;;;;;4.16;51.33;97702.78;5053797;28;20136;-66
2022/03/01 07:16:55;;;;;;;22.52;10.13;;;;;;;4.37;49.80;97705.88;5065075;28;20135;-65
2022/03/01 07:19:20;;;;;;;18.10;10.05;;;;;;;5.39;47.06;97695.84;5071535;28;20044;-65
2022/03/01 07:21:46;;;;;;;20.40;10.18;;;;;;;4.91;47.00;97703.41;5075169;28;20039;-65
2022/03/01 07:24:11;;;;;;;22.70;10.25;;;;;;;5.30;47.12;97707.44;5060286;28;20051;-65
2022/03/01 07:26:37;;;;;;;23.58;9.50;;;;;;;5.60;46.45;97701.56;5057278;28;20052;-65
2022/03/01 07:29:03;;;;;;;19.98;9.73;;;;;;;4.89;46.70;97704.84;5052234;28;20092;-65
2022/03/01 07:31:29;;;;;;;20.48;10.82;;;;;;;5.16;46.45;97712.09;5062084;28;20554;-65
2022/03/01 07:33:54;;;;;;;17.80;9.70;;;;;;;5.20;45.91;97704.16;5064167;28;20052;-65
2022/03/01 07:36:20;;;;;;;18.63;9.25;;;;;;;6.79;42.58;97714.50;5058882;28;20037;-68
2022/03/01 07:38:45;;;;;;;20.10;9.82;;;;;;;8.04;39.31;97711.09;5064476;28;20059;-66
2022/03/01 07:41:10;;;;;;;20.20;10.27;;;;;;;5.49;43.18;97709.16;5046443;28;20051;-65
2022/03/01 07:43:36;;;;;;;23.50;13.68;;;;;;;2.51;51.36;97713.72;5065905;28;20488;-65
2022/03/01 07:46:03;;;;;;;24.42;12.45;;;;;;;2.14;55.24;97713.28;5052078;28;20052;-66
2022/03/01 07:48:28;;;;;;;21.67;11.05;;;;;;;2.10;54.88;97720.38;5056925;28;20045;-66
2022/03/01 07:50:54;;;;;;;20.65;12.52;;;;;;;2.06;55.20;97709.34;5062000;28;20468;-65
2022/03/01 07:53:19;;;;;;;18.90;10.38;;;;;;;3.40;50.70;97710.28;5057813;28;20040;-66
2022/03/01 07:55:45;;;;;;;25.60;10.20;;;;;;;3.13;51.24;97713.69;5057383;28;20056;-66
2022/03/01 07:58:11;;;;;;;17.92;11.00;;;;;;;1.39;56.86;97708.31;5042148;28;20102;-66
2022/03/01 08:00:36;;;;;;;22.88;11.75;;;;;;;0.12;60.18;97709.53;5052472;28;20074;-65
2022/03/01 08:03:02;;;;;;;23.95;12.02;;;;;;;0.04;60.91;97702.03;5054151;28;20489;-64
2022/03/01 08:05:28;;;;;;;22.65;13.35;;;;;;;0.26;62.03;97698.97;5060192;28;20046;-64
2022/03/01 08:07:56;;;;;;;23.70;13.63;;;;;;;0.21;61.64;97698.19;5054812;28;20045;-64
2022/03/01 08:10:22;;;;;;;26.00;12.63;;;;;;;0.24;63.36;97695.75;5042586;28;20499;-64
2022/03/01 08:12:47;;;;;;;21.80;11.50;;;;;;;1.51;58.88;97700.66;5053565;28;20377;-65
2022/03/01 08:15:13;;;;;;;19.40;11.38;;;;;;;0.93;60.19;97704.84;5057265;28;20427;-65
2022/03/01 08:17:49;;;;;;;20.30;11.30;;;;;;;1.02;59.68;97699.69;5062710;28;20075;-64
2022/03/01 08:20:15;;;;;;;24.67;11.23;;;;;;;0.81;60.04;97706.28;5039132;28;20044;-64
2022/03/01 08:22:40;;;;;;;21.52;11.05;;;;;;;2.08;57.35;97706.34;5055918;28;20659;-64
2022/03/01 08:25:07;;;;;;;23.25;11.23;;;;;;;1.06;59.36;97718.81;5046247;28;20052;-65
2022/03/01 08:27:32;;;;;;;20.15;11.90;;;;;;;1.46;58.52;97711.50;5054400;28;20063;-63
2022/03/01 08:29:57;;;;;;;21.65;11.50;;;;;;;2.28;56.11;97716.91;5061593;28;20036;-64
2022/03/01 08:32:23;;;;;;;24.40;12.02;;;;;;;1.93;57.83;97715.41;5048734;28;20041;-64
2022/03/01 08:34:48;;;;;;;23.65;12.40;;;;;;;1.43;60.50;97714.78;5051209;28;20033;-64
2022/03/01 08:37:14;;;;;;;24.08;12.73;;;;;;;1.67;59.46;97710.22;5050919;28;20436;-64
2022/03/01 08:39:39;;;;;;;26.13;12.02;;;;;;;1.35;59.40;97705.38;5051501;28;20068;-63
2022/03/01 08:42:05;;;;;;;28.15;12.07;;;;;;;1.92;59.34;97709.19;5043993;28;20049;-64
2022/03/01 08:44:30;;;;;;;21.42;11.15;;;;;;;2.92;54.67;97707.75;5057031;28;20040;-62
2022/03/01 08:46:55;;;;;;;19.02;10.23;;;;;;;1.42;59.37;97699.66;5050911;28;20135;-64
2022/03/01 08:49:21;;;;;;;25.00;11.57;;;;;;;1.71;59.38;97700.50;5051881;28;20475;-64
2022/03/01 08:51:46;;;;;;;22.17;11.27;;;;;;;2.39;56.80;97698.69;5053281;28;20036;-64
2022/03/01 08:54:12;;;;;;;23.17;11.90;;;;;;;1.97;57.86;97702.94;5044803;28;20052;-64
2022/03/01 08:56:37;;;;;;;20.15;10.77;;;;;;;1.90;59.23;97697.06;5054533;28;20048;-65
2022/03/01 08:59:05;;;;;;;21.17;11.45;;;;;;;1.71;59.13;97697.78;5070058;28;20378;-65
2022/03/01 09:01:31;;;;;;;20.02;11.15;;;;;;;2.02;59.33;97704.81;5057180;28;20065;-66
2022/03/01 09:03:56;;;;;;;22.85;11.07;;;;;;;1.84;59.37;97701.72;5057066;28;20065;-65
2022/03/01 09:06:22;;;;;;;26.63;12.88;;;;;;;3.02;56.02;97694.88;5042516;28;21069;-65
2022/03/01 09:08:47;;;;;;;18.63;10.35;;;;;;;4.07;52.58;97688.31;5052130;28;20037;-65
2022/03/01 09:11:13;;;;;;;21.90;11.35;;;;;;;2.61;55.60;97695.47;5048521;28;20110;-65
2022/03/01 09:13:39;;;;;;;21.63;11.45;;;;;;;3.25;55.46;97692.41;5058025;28;20108;-65
2022/03/01 09:16:05;;;;;;;21.25;11.32;;;;;;;2.53;56.65;97684.47;5045788;28;20045;-66
2022/03/01 09:18:31;;;;;;;20.77;11.52;;;;;;;3.71;53.05;97686.25;5053444;28;20036;-65
2022/03/01 09:20:56;;;;;;;21.67;11.75;;;;;;;2.80;56.07;97686.56;5060787;28;20098;-66
2022/03/01 09:23:22;;;;;;;20.25;11.50;;;;;;;2.35;57.59;97694.16;5054052;28;20114;-65
2022/03/01 09:25:47;;;;;;;22.33;11.55;;;;;;;2.31;59.03;97691.22;5051929;28;20052;-65
2022/03/01 09:28:12;;;;;;;19.23;10.82;;;;;;;3.63;53.76;97692.31;5046071;28;20043;-66
2022/03/01 09:30:38;;;;;;;22.20;11.70;;;;;;;3.43;53.06;97688.06;5051867;28;20048;-65
2022/03/01 09:33:03;;;;;;;22.45;10.85;;;;;;;3.67;54.35;97679.78;5036373;28;20124;-66
2022/03/01 09:35:29;;;;;;;22.95;12.70;;;;;;;2.81;56.18;97686.25;5047161;28;20095;-65
2022/03/01 09:37:55;;;;;;;22.45;11.93;;;;;;;3.23;55.17;97668.31;5060058;28;20048;-65
2022/03/01 09:40:20;;;;;;;22.35;11.65;;;;;;;4.17;54.94;97668.31;5055386;28;20811;-65
2022/03/01 09:42:45;;;;;;;19.45;10.55;;;;;;;3.97;52.23;97670.31;5048633;28;20044;-66
2022/03/01 09:45:13;;;;;;;19.05;10.77;;;;;;;5.48;51.56;97672.25;5046069;28;20114;-66
2022/03/01 09:47:39;;;;;;;19.77;11.48;;;;;;;3.59;54.46;97666.94;5046223;28;20124;-66
2022/03/01 09:50:07;;;;;;;27.23;13.27;;;;;;;2.79;55.99;97671.41;5050113;28;20044;-65
2022/03/01 09:52:33;;;;;;;24.23;12.85;;;;;;;3.17;56.52;97668.69;5060752;28;20076;-66
2022/03/01 09:54:58;;;;;;;19.58;11.60;;;;;;;5.34;51.65;97662.25;5061051;28;20086;-66
2022/03/01 09:57:24;;;;;;;20.33;11.88;;;;;;;5.30;49.34;97658.53;5039999;28;20123;-66
2022/03/01 10:02:39;;;;;;;18.13;11.10;;;;;;;4.62;53.08;97643.28;4995512;28;20061;-66
2022/03/01 10:05:05;;;;;;;22.00;12.40;;;;;;;4.60;51.79;97651.72;4991086;28;20046;-64
2022/03/01 10:07:31;;;;;;;21.70;11.10;;;;;;;4.14;52.07;97649.94;4987943;28;20058;-68
2022/03/01 10:10:17;;;;;;;20.48;11.15;;;;;;;5.68;48.50;97649.19;4993093;28;20041;-66
2022/03/01 10:12:51;;;;;;;21.55;11.98;;;;;;;5.32;48.93;97637.28;5003426;28;20606;-68
2022/03/01 10:15:17;;;;;;;22.48;11.80;;;;;;;6.19;46.48;97639.69;4995784;28;20057;-67
2022/03/01 10:17:44;;;;;;;20.13;11.05;;;;;;;5.54;47.55;97625.59;4999131;28;20677;-67
2022/03/01 10:20:11;;;;;;;20.23;10.85;;;;;;;6.19;45.47;97631.53;4997066;28;20461;-67
2022/03/01 10:22:58;;;;;;;20.55;11.20;;;;;;;6.06;47.36;97625.09;5003416;28;20096;-68
2022/03/01 10:25:25;;;;;;;17.65;10.65;;;;;;;5.90;47.54;97624.66;5006423;28;20053;-67
2022/03/01 10:27:53;;;;;;;19.13;10.63;;;;;;;5.25;47.58;97620.63;4995628;28;20037;-67
2022/03/01 10:30:28;;;;;;;18.73;10.27;;;;;;;6.95;45.98;97626.88;4994248;28;20045;-68
2022/03/01 10:33:12;;;;;;;18.40;10.20;;;;;;;6.06;47.01;97618.84;5010280;28;20048;-66
2022/03/01 10:35:40;;;;;;;19.25;11.20;;;;;;;5.15;48.10;97623.63;4996062;28;20041;-67
2022/03/01 10:38:07;;;;;;;18.98;10.07;;;;;;;4.70;49.64;97621.66;4995081;28;20120;-66
2022/03/01 10:40:34;;;;;;;19.73;10.60;;;;;;;5.16;48.74;97619.78;4991793;28;20052;-67
2022/03/01 10:43:09;;;;;;;16.05;9.20;;;;;;;6.72;45.55;97620.75;5000429;28;20050;-64
2022/03/01 10:45:47;;;;;;;16.23;9.88;;;;;;;5.47;47.46;97619.81;4990261;28;20045;-67
2022/03/01 10:48:25;;;;;;;17.27;9.93;;;;;;;4.71;48.38;97612.38;4992480;28;20057;-66
2022/03/01 10:51:10;;;;;;;19.42;9.73;;;;;;;5.03;47.67;97610.56;5000634;28;20129;-67
2022/03/01 10:53:42;;;;;;;24.23;9.05;;;;;;;5.86;46.32;97610.09;5011775;28;20053;-67
2022/03/01 10:56:10;;;;;;;18.70;10.02;;;;;;;5.02;47.42;97613.59;4999953;28;20104;-67
2022/03/01 10:58:37;;;;;;;16.10;9.27;;;;;;;6.88;43.86;97611.03;4996334;28;20046;-67
2022/03/01 11:01:04;;;;;;;16.65;9.27;;;;;;;8.51;39.68;97609.28;5015260;28;20048;-66
2022/03/01 11:03:32;;;;;;;13.82;8.45;;;;;;;8.99;38.38;97605.25;5016214;28;20056;-66
2022/03/01 11:05:59;;;;;;;14.65;9.25;;;;;;;7.94;39.88;97605.06;5026256;28;20048;-66
2022/03/01 11:08:40;;;;;;;17.10;8.90;;;;;;;6.18;44.06;97604.66;5028538;28;20099;-67
2022/03/01 11:11:09;;;;;;;19.48;9.02;;;;;;;5.02;46.06;97595.38;5035463;28;20423;-66
2022/03/01 11:13:39;;;;;;;16.92;9.18;;;;;;;6.38;44.49;97598.63;5019733;28;20083;-67
2022/03/01 11:16:10;;;;;;;15.25;8.75;;;;;;;6.12;45.33;97596.66;5036470;28;20046;-63
2022/03/01 11:19:23;;;;;;;15.48;8.35;;;;;;;7.99;41.76;97583.03;5037800;28;20045;-67
2022/03/01 11:21:51;;;;;;;24.15;12.77;;;;;;;8.39;44.47;97584.59;5032522;28;20447;-68